Time;durP1;ratioP1;P1;durP2;ratioP2;P2;SDS_P1;SDS_P2;PMS_P1;PMS_P2;Temp;Humidity;BMP_temperature;BMP_pressure;BME280_temperature;BME280_humidity;BME280_pressure;Samples;Min_cycle;Max_cycle;Signal;HPM_P1;HPM_P2
2023/02/06 00:00:05;;;;;;;23.85;4.72;;;;;;;-143.48;91.36;118439.88;5096712;28;20028;-35
2023/02/06 00:02:31;;;;;;;29.27;4.95;;;;;;;-143.48;91.61;118439.88;5096373;28;20115;-34
2023/02/06 00:04:56;;;;;;;31.70;4.88;;;;;;;-143.48;91.78;118439.88;5077611;28;20020;-34
2023/02/06 00:07:21;;;;;;;33.28;4.75;;;;;;;-143.48;92.13;118439.88;5096190;28;20024;-34
2023/02/06 00:09:47;;;;;;;30.42;4.53;;;;;;;-143.48;92.30;118439.88;5096508;28;20101;-34
2023/02/06 00:12:12;;;;;;;36.67;5.55;;;;;;;-143.48;92.45;118439.88;5096724;28;20101;-35
2023/02/06 00:14:38;;;;;;;30.98;4.53;;;;;;;-143.48;92.00;118439.88;5096145;28;20103;-34
2023/02/06 00:17:03;;;;;;;27.20;4.18;;;;;;;-143.48;92.73;118439.88;5096471;28;20470;-34
2023/02/06 00:19:29;;;;;;;36.50;4.55;;;;;;;-143.48;92.21;118439.88;5095898;28;20382;-34
2023/02/06 00:21:54;;;;;;;28.15;4.13;;;;;;;-143.48;92.34;118439.88;5096049;28;20085;-35
2023/02/06 00:24:20;;;;;;;29.42;5.10;;;;;;;-143.48;91.68;118439.88;5094000;28;20020;-34
2023/02/06 00:26:45;;;;;;;36.53;4.60;;;;;;;-143.48;91.60;118439.88;5093800;28;20539;-34
2023/02/06 00:29:10;;;;;;;34.78;4.55;;;;;;;-143.48;92.00;118439.88;5093556;28;20024;-34
2023/02/06 00:31:36;;;;;;;29.58;4.45;;;;;;;-143.48;91.64;118439.88;5093759;28;20047;-34
2023/02/06 00:34:02;;;;;;;24.88;4.20;;;;;;;-143.48;91.98;118439.88;5093776;28;20510;-34
2023/02/06 00:36:28;;;;;;;27.55;4.20;;;;;;;-143.48;92.21;118439.88;5093743;28;20129;-34
2023/02/06 00:38:53;;;;;;;25.02;4.10;;;;;;;-143.48;91.76;118439.88;5093481;28;20664;-34
2023/02/06 00:41:19;;;;;;;30.60;4.20;;;;;;;-143.48;91.77;118439.88;5091546;28;20039;-34
2023/02/06 00:43:44;;;;;;;31.17;4.25;;;;;;;-143.48;92.26;118439.88;5091656;28;20028;-34
2023/02/06 00:46:10;;;;;;;25.45;4.18;;;;;;;-143.48;91.75;118439.88;5073404;28;20051;-34
2023/02/06 00:48:36;;;;;;;28.23;3.90;;;;;;;-143.48;91.72;118439.88;5091321;28;20040;-34
2023/02/06 00:51:01;;;;;;;31.25;3.95;;;;;;;-143.48;91.70;118439.88;5091442;28;20552;-34
2023/02/06 00:53:26;;;;;;;23.08;3.72;;;;;;;-143.48;91.91;118439.88;5073255;28;20028;-34
2023/02/06 00:55:52;;;;;;;40.33;5.03;;;;;;;-143.48;92.55;118439.88;5094251;28;20028;-34
2023/02/06 00:58:17;;;;;;;27.52;4.50;;;;;;;-143.48;92.25;118439.88;5095569;28;20093;-35
2023/02/06 01:00:43;;;;;;;29.52;4.38;;;;;;;-143.48;92.04;118439.88;5095402;28;20077;-34
2023/02/06 01:03:08;;;;;;;23.33;4.15;;;;;;;-143.48;92.40;118439.88;5095121;28;20031;-34
2023/02/06 01:05:33;;;;;;;27.08;4.03;;;;;;;-143.48;91.88;118439.88;5095425;28;20052;-34
2023/02/06 01:07:59;;;;;;;27.13;4.13;;;;;;;-143.48;91.70;118439.88;5095098;28;20020;-34
2023/02/06 01:10:24;;;;;;;32.60;4.43;;;;;;;-143.48;92.16;118439.88;5095373;28;20091;-34
2023/02/06 01:12:49;;;;;;;29.63;3.75;;;;;;;-143.48;92.05;118439.88;5094861;28;20050;-34
2023/02/06 01:15:15;;;;;;;29.55;4.22;;;;;;;-143.48;91.54;118439.88;5095298;28;20024;-34
2023/02/06 01:17:40;;;;;;;23.95;3.85;;;;;;;-143.48;91.54;118439.88;5094805;28;20466;-34
2023/02/06 01:20:09;;;;;;;23.48;3.60;;;;;;;-143.48;92.30;118439.88;5076707;28;20533;-34
2023/02/06 01:22:35;;;;;;;32.75;4.15;;;;;;;-143.48;92.43;118439.88;5076515;28;20032;-34
2023/02/06 01:25:01;;;;;;;22.73;3.58;;;;;;;-143.48;92.76;118439.88;5095262;28;20051;-34
2023/02/06 01:27:27;;;;;;;29.38;3.72;;;;;;;-143.48;92.68;118439.88;5076643;28;20043;-34
2023/02/06 01:29:52;;;;;;;29.85;4.22;;;;;;;-143.48;92.61;118439.88;5094738;28;20020;-34
2023/02/06 01:32:18;;;;;;;21.60;3.55;;;;;;;-143.48;92.68;118439.88;5094742;28;20034;-34
2023/02/06 01:34:43;;;;;;;28.50;4.05;;;;;;;-143.48;92.56;118439.88;5094558;28;20446;-34
2023/02/06 01:37:08;;;;;;;33.55;3.85;;;;;;;-143.48;92.42;118439.88;5094810;28;20476;-35
2023/02/06 01:39:34;;;;;;;26.63;4.22;;;;;;;-143.48;92.57;118439.88;5094764;28;20020;-34
2023/02/06 01:41:59;;;;;;;24.65;3.85;;;;;;;-143.48;92.96;118439.88;5094460;28;20426;-34
2023/02/06 01:44:25;;;;;;;31.83;3.83;;;;;;;-143.48;92.97;118439.88;5094706;28;20022;-35
2023/02/06 01:46:54;;;;;;;28.60;3.90;;;;;;;-143.48;93.23;118439.88;5094435;28;20051;-34
2023/02/06 01:49:37;;;;;;;25.55;3.22;;;;;;;-143.48;92.75;118439.88;5094217;28;20059;-34
2023/02/06 01:52:17;;;;;;;25.35;3.83;;;;;;;-143.48;92.89;118439.88;5094346;28;20032;-34
2023/02/06 01:54:45;;;;;;;22.42;3.70;;;;;;;-143.48;92.29;118439.88;5094523;28;20016;-34
2023/02/06 01:57:12;;;;;;;27.30;4.18;;;;;;;-143.48;92.56;118439.88;5093372;28;20023;-35
2023/02/06 01:59:41;;;;;;;24.25;3.67;;;;;;;-143.48;93.29;118439.88;5093856;28;20032;-34
2023/02/06 02:02:06;;;;;;;35.70;5.07;;;;;;;-143.48;93.13;118439.88;5094671;28;20028;-34
2023/02/06 02:04:32;;;;;;;22.95;3.58;;;;;;;-143.48;93.03;118439.88;5094088;28;20085;-34
2023/02/06 02:07:22;;;;;;;33.97;4.10;;;;;;;-143.48;92.82;118439.88;5094286;28;20031;-34
2023/02/06 02:09:47;;;;;;;27.25;4.28;;;;;;;-143.48;92.21;118439.88;5094253;28;20032;-34
2023/02/06 02:12:13;;;;;;;25.92;4.50;;;;;;;-143.48;93.20;118439.88;5093900;28;20056;-34
2023/02/06 02:14:41;;;;;;;22.17;3.70;;;;;;;-143.48;92.71;118439.88;5093931;28;20466;-34
2023/02/06 02:17:35;;;;;;;24.70;4.07;;;;;;;-143.48;92.67;118439.88;5093869;28;20386;-34
2023/02/06 02:20:30;;;;;;;29.27;4.05;;;;;;;-143.48;92.60;118439.88;5093634;28;20024;-34
2023/02/06 02:23:14;;;;;;;24.27;4.20;;;;;;;-143.48;92.48;118439.88;5094259;28;20477;-34
2023/02/06 02:26:05;;;;;;;21.05;3.58;;;;;;;-143.48;92.83;118439.88;5091861;28;20036;-34
2023/02/06 02:28:39;;;;;;;22.55;3.97;;;;;;;-143.48;92.99;118439.88;5091147;28;20428;-34
2023/02/06 02:31:25;;;;;;;22.33;3.88;;;;;;;-143.48;93.33;118439.88;5091559;28;20058;-34
2023/02/06 02:34:20;;;;;;;27.10;3.72;;;;;;;-143.48;93.68;118439.88;5091541;28;20032;-34
2023/02/06 02:36:55;;;;;;;29.42;4.18;;;;;;;-143.48;93.51;118439.88;5091446;28;20020;-34
2023/02/06 02:39:40;;;;;;;23.63;2.90;;;;;;;-143.48;93.70;118439.88;5091674;28;20115;-34
2023/02/06 02:42:19;;;;;;;22.25;4.00;;;;;;;-143.48;93.38;118439.88;5093454;28;20020;-34
2023/02/06 02:44:47;;;;;;;26.30;3.60;;;;;;;-143.48;92.94;118439.88;5076092;28;20035;-34
2023/02/06 02:47:15;;;;;;;28.00;3.55;;;;;;;-143.48;92.86;118439.88;5093772;28;20024;-34
2023/02/06 02:49:44;;;;;;;31.85;4.15;;;;;;;-143.48;93.09;118439.88;5093279;28;20047;-34
2023/02/06 02:52:09;;;;;;;21.35;3.60;;;;;;;-143.48;92.51;118439.88;5093955;28;20056;-35
2023/02/06 02:54:35;;;;;;;25.98;3.92;;;;;;;-143.48;92.31;118439.88;5075324;28;20458;-34
2023/02/06 02:57:07;;;;;;;21.70;3.38;;;;;;;-143.48;92.29;118439.88;5093458;28;20023;-34
2023/02/06 02:59:37;;;;;;;21.77;3.47;;;;;;;-143.48;92.45;118439.88;5093397;28;20029;-34
2023/02/06 03:02:02;;;;;;;19.60;3.80;;;;;;;-143.48;92.81;118439.88;5093901;28;20024;-40
2023/02/06 03:04:39;;;;;;;16.42;3.50;;;;;;;-143.48;92.23;118439.88;5093363;28;20020;-34
2023/02/06 03:07:15;;;;;;;25.48;3.35;;;;;;;-143.48;92.77;118439.88;5093942;28;20024;-34
2023/02/06 03:09:47;;;;;;;20.23;3.38;;;;;;;-143.48;93.08;118439.88;5093563;28;20024;-34
2023/02/06 03:12:33;;;;;;;22.88;3.17;;;;;;;-143.48;92.53;118439.88;5093860;28;20032;-34
2023/02/06 03:15:04;;;;;;;25.60;4.32;;;;;;;-143.48;92.88;118439.88;5093670;28;20024;-35
2023/02/06 03:17:37;;;;;;;21.48;3.33;;;;;;;-143.48;92.88;118439.88;5093174;28;20024;-34
2023/02/06 03:20:06;;;;;;;41.78;4.43;;;;;;;-143.48;92.51;118439.88;5093215;28;20069;-34
2023/02/06 03:22:34;;;;;;;26.83;4.35;;;;;;;-143.48;92.17;118439.88;5093202;28;20031;-34
2023/02/06 03:25:04;;;;;;;21.92;3.97;;;;;;;-143.48;91.95;118439.88;5093160;28;20016;-34
2023/02/06 03:27:31;;;;;;;19.70;2.95;;;;;;;-143.48;92.27;118439.88;5093072;28;20443;-34
2023/02/06 03:30:00;;;;;;;17.52;3.60;;;;;;;-143.48;92.19;118439.88;5093183;28;20024;-34
2023/02/06 03:32:31;;;;;;;21.73;3.10;;;;;;;-143.48;92.29;118439.88;5075084;28;20035;-34
2023/02/06 03:35:13;;;;;;;26.00;3.53;;;;;;;-143.48;92.50;118439.88;5093102;28;20024;-34
2023/02/06 03:37:38;;;;;;;18.63;3.50;;;;;;;-143.48;93.20;118439.88;5074964;28;20038;-34
2023/02/06 03:40:06;;;;;;;23.20;3.55;;;;;;;-143.48;93.02;118439.88;5096124;28;20020;-34
2023/02/06 03:42:36;;;;;;;21.20;3.45;;;;;;;-143.48;93.48;118439.88;5096760;28;20381;-34
2023/02/06 03:45:25;;;;;;;22.08;3.70;;;;;;;-143.48;93.84;118439.88;5096740;28;20061;-34
2023/02/06 03:47:55;;;;;;;20.27;3.22;;;;;;;-143.48;93.91;118439.88;5096750;28;20375;-34
2023/02/06 03:50:22;;;;;;;21.98;3.20;;;;;;;-143.48;93.94;118439.88;5096670;28;20020;-34
2023/02/06 03:52:49;;;;;;;25.95;3.30;;;;;;;-143.48;93.87;118439.88;5096921;28;20539;-34
2023/02/06 03:55:21;;;;;;;29.98;3.72;;;;;;;-143.48;93.22;118439.88;5096568;28;20078;-34
2023/02/06 03:57:51;;;;;;;13.98;2.92;;;;;;;-143.48;92.88;118439.88;5096679;28;20024;-34
2023/02/06 04:00:17;;;;;;;19.20;3.20;;;;;;;-143.48;93.26;118439.88;5096969;28;20101;-34
2023/02/06 04:02:46;;;;;;;22.65;3.20;;;;;;;-143.48;93.20;118439.88;5078244;28;20032;-34
2023/02/06 04:05:12;;;;;;;19.55;3.70;;;;;;;-143.48;92.63;118439.88;5096615;28;20073;-34
2023/02/06 04:07:37;;;;;;;25.00;3.60;;;;;;;-143.48;92.73;118439.88;5096280;28;20462;-34
2023/02/06 04:10:03;;;;;;;17.23;3.20;;;;;;;-143.48;92.43;118439.88;5096523;28;20051;-34
2023/02/06 04:12:28;;;;;;;16.80;3.35;;;;;;;-143.48;92.84;118439.88;5096438;28;20488;-34
2023/02/06 04:14:53;;;;;;;30.92;3.50;;;;;;;-143.48;92.62;118439.88;5096416;28;20024;-35
2023/02/06 04:17:19;;;;;;;21.70;3.47;;;;;;;-143.48;92.14;118439.88;5096401;28;20095;-34
2023/02/06 04:19:44;;;;;;;18.83;3.25;;;;;;;-143.48;92.32;118439.88;5095883;28;20030;-34
2023/02/06 04:22:13;;;;;;;23.45;3.30;;;;;;;-143.48;92.74;118439.88;5096534;28;20024;-34
2023/02/06 04:24:40;;;;;;;21.95;3.50;;;;;;;-143.48;92.49;118439.88;5077848;28;20360;-34
2023/02/06 04:27:10;;;;;;;20.88;3.13;;;;;;;-143.48;92.61;118439.88;5095905;28;20024;-34
2023/02/06 04:29:36;;;;;;;26.02;3.85;;;;;;;-143.48;93.01;118439.88;5096629;28;20148;-34
2023/02/06 04:32:02;;;;;;;19.52;3.38;;;;;;;-143.48;93.07;118439.88;5096538;28;20132;-34
2023/02/06 04:34:28;;;;;;;26.70;4.38;;;;;;;-143.48;92.55;118439.88;5077702;28;20020;-34
2023/02/06 04:36:54;;;;;;;29.42;3.72;;;;;;;-143.48;92.58;118439.88;5095782;28;20059;-34
2023/02/06 04:39:20;;;;;;;18.10;3.50;;;;;;;-143.48;92.77;118439.88;5095638;28;20071;-34
2023/02/06 04:41:45;;;;;;;23.92;3.63;;;;;;;-143.48;92.41;118439.88;5095479;28;20466;-34
2023/02/06 04:44:10;;;;;;;16.88;3.03;;;;;;;-143.48;92.36;118439.88;5095587;28;20080;-34
2023/02/06 04:46:35;;;;;;;21.75;3.40;;;;;;;-143.48;92.53;118439.88;5095818;28;20371;-34
2023/02/06 04:49:01;;;;;;;17.52;3.33;;;;;;;-143.48;92.94;118439.88;5095357;28;20123;-34
2023/02/06 04:51:26;;;;;;;24.23;3.67;;;;;;;-143.48;92.83;118439.88;5094762;28;20107;-34
2023/02/06 04:53:52;;;;;;;23.48;3.95;;;;;;;-143.48;92.65;118439.88;5077179;28;20027;-34
2023/02/06 04:56:17;;;;;;;25.10;3.83;;;;;;;-143.48;92.48;118439.88;5095441;28;20034;-34
2023/02/06 04:58:42;;;;;;;18.73;4.03;;;;;;;-143.48;92.40;118439.88;5095563;28;20028;-34
2023/02/06 05:01:08;;;;;;;16.85;3.30;;;;;;;-143.48;92.45;118439.88;5095466;28;20032;-34
2023/02/06 05:03:33;;;;;;;22.98;3.70;;;;;;;-143.48;92.68;118439.88;5095188;28;20016;-34
2023/02/06 05:06:00;;;;;;;17.15;3.22;;;;;;;-143.48;92.86;118439.88;5095145;28;20025;-34
2023/02/06 05:08:25;;;;;;;21.92;3.55;;;;;;;-143.48;92.70;118439.88;5095089;28;20522;-34
2023/02/06 05:10:51;;;;;;;23.52;3.83;;;;;;;-143.48;92.60;118439.88;5095116;28;20047;-34
2023/02/06 05:13:19;;;;;;;15.90;3.55;;;;;;;-143.48;92.64;118439.88;5095313;28;20058;-34
2023/02/06 05:15:45;;;;;;;22.40;3.85;;;;;;;-143.48;93.32;118439.88;5095003;28;20381;-34
2023/02/06 05:18:11;;;;;;;23.27;3.20;;;;;;;-143.48;93.03;118439.88;5076759;28;20024;-34
2023/02/06 05:20:36;;;;;;;24.75;3.10;;;;;;;-143.48;93.09;118439.88;5094844;28;20103;-34
2023/02/06 05:23:01;;;;;;;25.98;4.13;;;;;;;-143.48;93.84;118439.88;5094887;28;20027;-35
2023/02/06 05:25:27;;;;;;;21.67;4.05;;;;;;;-143.48;94.29;118439.88;5094690;28;20066;-34
2023/02/06 05:27:53;;;;;;;21.27;3.72;;;;;;;-143.48;94.41;118439.88;5094749;28;20016;-34
2023/02/06 05:30:18;;;;;;;23.10;3.55;;;;;;;-143.48;94.43;118439.88;5094749;28;20050;-34
2023/02/06 05:32:43;;;;;;;20.65;3.42;;;;;;;-143.48;94.44;118439.88;5094931;28;20032;-34
2023/02/06 05:35:09;;;;;;;25.65;4.03;;;;;;;-143.48;94.17;118439.88;5094880;28;20020;-35
2023/02/06 05:37:37;;;;;;;26.42;3.72;;;;;;;-143.48;93.61;118439.88;5076341;28;20020;-34
2023/02/06 05:40:05;;;;;;;21.30;3.30;;;;;;;-143.48;93.22;118439.88;5094598;28;20076;-34
2023/02/06 05:42:31;;;;;;;18.10;3.55;;;;;;;-143.48;94.13;118439.88;5094739;28;20035;-34
2023/02/06 05:44:56;;;;;;;19.25;3.15;;;;;;;-143.48;94.51;118439.88;5094480;28;20382;-34
2023/02/06 05:47:21;;;;;;;24.45;3.83;;;;;;;-143.48;94.52;118439.88;5094120;28;20050;-34
2023/02/06 05:49:47;;;;;;;25.40;3.60;;;;;;;-143.48;94.84;118439.88;5094374;28;20107;-34
2023/02/06 05:52:13;;;;;;;18.52;3.42;;;;;;;-143.48;94.61;118439.88;5094226;28;20102;-35
2023/02/06 05:54:38;;;;;;;22.60;3.22;;;;;;;-143.48;94.27;118439.88;5094225;28;20024;-34
2023/02/06 05:57:03;;;;;;;17.65;2.88;;;;;;;-143.48;93.79;118439.88;5094490;28;20370;-34
2023/02/06 05:59:29;;;;;;;20.35;3.15;;;;;;;-143.48;93.62;118439.88;5094378;28;20020;-34
2023/02/06 06:01:54;;;;;;;16.98;3.33;;;;;;;-143.48;93.73;118439.88;5093753;28;20026;-34
2023/02/06 06:04:19;;;;;;;21.25;3.47;;;;;;;-143.48;94.07;118439.88;5093493;28;20026;-34
2023/02/06 06:06:45;;;;;;;21.58;3.67;;;;;;;-143.48;94.25;118439.88;5094041;28;20020;-34
2023/02/06 06:09:11;;;;;;;22.40;2.97;;;;;;;-143.48;93.79;118439.88;5093929;28;20077;-34
2023/02/06 06:11:36;;;;;;;18.17;3.25;;;;;;;-143.48;93.53;118439.88;5094026;28;20073;-34
2023/02/06 06:14:01;;;;;;;15.05;3.22;;;;;;;-143.48;93.74;118439.88;5093958;28;20032;-34
2023/02/06 06:16:27;;;;;;;26.13;3.45;;;;;;;-143.48;93.24;118439.88;5094152;28;20355;-34
2023/02/06 06:18:52;;;;;;;22.60;3.83;;;;;;;-143.48;93.39;118439.88;5093649;28;20028;-34
2023/02/06 06:21:18;;;;;;;27.38;3.33;;;;;;;-143.48;93.40;118439.88;5093794;28;20027;-34
2023/02/06 06:23:43;;;;;;;18.70;3.38;;;;;;;-143.48;93.25;118439.88;5093578;28;20032;-34
2023/02/06 06:26:09;;;;;;;20.75;3.55;;;;;;;-143.48;93.35;118439.88;5093998;28;20433;-34
2023/02/06 06:28:37;;;;;;;22.27;4.03;;;;;;;-143.48;92.88;118439.88;5093359;28;20073;-34
2023/02/06 06:31:04;;;;;;;22.65;4.70;;;;;;;-143.48;93.09;118439.88;5093479;28;20016;-34
2023/02/06 06:33:30;;;;;;;23.88;5.32;;;;;;;-143.48;92.99;118439.88;5093407;28;20032;-34
2023/02/06 06:35:55;;;;;;;25.02;6.00;;;;;;;-143.48;93.74;118439.88;5093462;28;20028;-34
2023/02/06 06:38:20;;;;;;;23.42;5.60;;;;;;;-143.48;93.30;118439.88;5093439;28;20027;-34
2023/02/06 06:40:46;;;;;;;21.38;4.82;;;;;;;-143.48;93.45;118439.88;5093525;28;20081;-34
2023/02/06 06:43:11;;;;;;;24.90;5.03;;;;;;;-143.48;93.69;118439.88;5075269;28;20024;-34
2023/02/06 06:45:36;;;;;;;23.17;5.25;;;;;;;-143.48;93.53;118439.88;5093591;28;20059;-34
2023/02/06 06:48:02;;;;;;;22.15;5.32;;;;;;;-143.48;93.67;118439.88;5093199;28;20508;-34
2023/02/06 06:50:27;;;;;;;23.73;4.35;;;;;;;-143.48;92.91;118439.88;5093563;28;20050;-34
2023/02/06 06:52:52;;;;;;;24.38;4.15;;;;;;;-143.48;93.40;118439.88;5093086;28;20095;-34
2023/02/06 06:55:18;;;;;;;28.60;5.05;;;;;;;-143.48;93.14;118439.88;5093559;28;20102;-34
2023/02/06 06:57:44;;;;;;;17.05;3.90;;;;;;;-143.48;93.16;118439.88;5075193;28;20020;-34
2023/02/06 07:00:11;;;;;;;23.05;3.88;;;;;;;-143.48;93.79;118439.88;5093318;28;20017;-34
2023/02/06 07:02:36;;;;;;;15.57;4.20;;;;;;;-143.48;94.05;118439.88;5075001;28;20035;-34
2023/02/06 07:05:02;;;;;;;26.75;4.38;;;;;;;-143.48;92.95;118439.88;5093051;28;20022;-34
2023/02/06 07:07:28;;;;;;;22.45;3.95;;;;;;;-143.48;92.96;118439.88;5093165;28;20136;-34
2023/02/06 07:09:53;;;;;;;17.40;4.20;;;;;;;-143.48;93.40;118439.88;5093170;28;20456;-34
2023/02/06 07:12:18;;;;;;;21.63;4.70;;;;;;;-143.48;92.92;118439.88;5093368;28;20036;-34
2023/02/06 07:14:44;;;;;;;20.88;3.97;;;;;;;-143.48;93.41;118439.88;5092844;28;20327;-35
2023/02/06 07:17:09;;;;;;;17.33;4.22;;;;;;;-143.48;92.26;118439.88;5095482;28;20073;-34
2023/02/06 07:19:34;;;;;;;16.15;4.45;;;;;;;-143.48;92.54;118439.88;5095022;28;20031;-34
2023/02/06 07:21:59;;;;;;;23.50;3.92;;;;;;;-143.48;93.12;118439.88;5095893;28;20073;-34
2023/02/06 07:24:25;;;;;;;20.67;4.93;;;;;;;-143.48;92.99;118439.88;5096537;28;20544;-34
2023/02/06 07:26:50;;;;;;;18.42;4.43;;;;;;;-143.48;92.80;118439.88;5077617;28;20028;-34
2023/02/06 07:29:15;;;;;;;21.95;5.25;;;;;;;-143.48;92.58;118439.88;5095853;28;20027;-34
2023/02/06 07:31:41;;;;;;;23.40;4.72;;;;;;;-143.48;93.13;118439.88;5096957;28;20058;-34
2023/02/06 07:34:06;;;;;;;28.58;4.97;;;;;;;-143.48;92.99;118439.88;5095933;28;20024;-34
2023/02/06 07:36:31;;;;;;;21.48;4.25;;;;;;;-143.48;92.86;118439.88;5095921;28;20058;-34
2023/02/06 07:38:57;;;;;;;20.73;4.45;;;;;;;-143.48;93.01;118439.88;5096364;28;20023;-34
2023/02/06 07:41:22;;;;;;;25.45;4.28;;;;;;;-143.48;92.94;118439.88;5096013;28;20028;-35
2023/02/06 07:43:47;;;;;;;22.75;4.07;;;;;;;-143.48;92.75;118439.88;5095989;28;20024;-34
2023/02/06 07:46:13;;;;;;;27.20;5.07;;;;;;;-143.48;93.53;118439.88;5096011;28;20073;-34
2023/02/06 07:48:38;;;;;;;22.65;4.07;;;;;;;-143.48;94.14;118439.88;5095920;28;20402;-34
2023/02/06 07:51:06;;;;;;;24.67;4.65;;;;;;;-143.48;93.74;118439.88;5096375;28;20016;-34
2023/02/06 07:53:31;;;;;;;25.65;4.75;;;;;;;-143.48;93.32;118439.88;5095965;28;20026;-34
2023/02/06 07:55:56;;;;;;;24.40;4.88;;;;;;;-143.48;94.35;118439.88;5096780;28;20412;-34
2023/02/06 07:58:22;;;;;;;26.30;5.38;;;;;;;-143.48;94.12;118439.88;5096388;28;20076;-34
2023/02/06 08:00:47;;;;;;;35.47;5.10;;;;;;;-143.48;93.61;118439.88;5096142;28;20028;-34
2023/02/06 08:03:13;;;;;;;21.15;4.88;;;;;;;-143.48;93.91;118439.88;5078169;28;20050;-34
2023/02/06 08:05:38;;;;;;;24.25;5.13;;;;;;;-143.48;93.92;118439.88;5078298;28;20035;-34
2023/02/06 08:08:05;;;;;;;27.42;5.70;;;;;;;-143.48;93.84;118439.88;5096114;28;20462;-34
2023/02/06 08:10:30;;;;;;;32.35;5.13;;;;;;;-143.48;94.17;118439.88;5077696;28;20020;-34
2023/02/06 08:12:55;;;;;;;25.50;5.03;;;;;;;-143.48;93.74;118439.88;5096767;28;20024;-34
2023/02/06 08:15:21;;;;;;;24.50;5.00;;;;;;;-143.48;93.98;118439.88;5096098;28;20362;-34
2023/02/06 08:17:46;;;;;;;24.17;4.65;;;;;;;-143.48;93.35;118439.88;5096065;28;20028;-34
2023/02/06 08:20:12;;;;;;;32.15;5.53;;;;;;;-143.48;93.30;118439.88;5095949;28;20020;-34
2023/02/06 08:22:38;;;;;;;26.70;5.85;;;;;;;-143.48;93.58;118439.88;5096513;28;20027;-34
2023/02/06 08:25:04;;;;;;;27.15;4.78;;;;;;;-143.48;94.10;118439.88;5077166;28;20041;-34
2023/02/06 08:27:30;;;;;;;22.90;4.22;;;;;;;-143.48;93.22;118439.88;5095494;28;20027;-34
2023/02/06 08:29:58;;;;;;;23.05;3.58;;;;;;;-143.48;92.83;118439.88;5095931;28;20032;-34
2023/02/06 08:32:24;;;;;;;31.88;4.10;;;;;;;-143.48;92.79;118439.88;5095943;28;20433;-34
2023/02/06 08:34:49;;;;;;;32.58;4.65;;;;;;;-143.48;92.24;118439.88;5095956;28;20028;-34
2023/02/06 08:37:14;;;;;;;19.40;3.90;;;;;;;-143.48;92.52;118439.88;5095672;28;20020;-34
2023/02/06 08:39:39;;;;;;;30.17;4.68;;;;;;;-143.48;91.80;118439.88;5095963;28;20109;-34
2023/02/06 08:42:05;;;;;;;24.58;4.22;;;;;;;-143.48;91.37;118439.88;5095722;28;20463;-34
2023/02/06 08:44:30;;;;;;;42.72;7.00;;;;;;;-143.48;90.71;118439.88;5096025;28;20016;-34
2023/02/06 08:46:55;;;;;;;26.00;4.03;;;;;;;-143.48;90.71;118439.88;5095489;28;20120;-35
2023/02/06 08:49:25;;;;;;;37.85;5.63;;;;;;;-143.48;90.05;118439.88;5095921;28;20509;-35
2023/02/06 08:51:50;;;;;;;29.08;4.50;;;;;;;-143.48;89.18;118439.88;5095667;28;20016;-34
2023/02/06 08:54:18;;;;;;;35.72;4.18;;;;;;;-143.48;89.83;118439.88;5095292;28;20028;-34
2023/02/06 08:56:44;;;;;;;27.00;4.82;;;;;;;-143.48;89.36;118439.88;5095363;28;20108;-35
2023/02/06 08:59:11;;;;;;;21.42;4.72;;;;;;;-143.48;89.16;118439.88;5077102;28;20063;-34
2023/02/06 09:01:37;;;;;;;21.55;4.28;;;;;;;-143.48;88.82;118439.88;5077098;28;20020;-34
2023/02/06 09:04:06;;;;;;;25.20;4.75;;;;;;;-143.48;89.39;118439.88;5095199;28;20063;-34
2023/02/06 09:06:33;;;;;;;33.10;5.07;;;;;;;-143.48;88.48;118439.88;5095516;28;20028;-35
2023/02/06 09:08:59;;;;;;;24.90;4.72;;;;;;;-143.48;89.23;118439.88;5095412;28;20359;-34
2023/02/06 09:11:25;;;;;;;22.95;3.92;;;;;;;-143.48;88.90;118439.88;5076792;28;20027;-34
2023/02/06 09:13:54;;;;;;;22.40;4.88;;;;;;;-143.48;88.35;118439.88;5094957;28;20541;-34
2023/02/06 09:16:21;;;;;;;25.23;4.38;;;;;;;-143.48;89.10;118439.88;5094844;28;20074;-34
2023/02/06 09:18:48;;;;;;;28.58;4.32;;;;;;;-143.48;89.36;118439.88;5076809;28;20020;-34
2023/02/06 09:21:20;;;;;;;24.58;4.35;;;;;;;-143.48;88.67;118439.88;5094709;28;20024;-35
2023/02/06 09:23:51;;;;;;;31.33;4.70;;;;;;;-143.48;87.89;118439.88;5094832;28;20027;-34
2023/02/06 09:26:20;;;;;;;21.38;5.05;;;;;;;-143.48;87.05;118439.88;5094966;28;20031;-34
2023/02/06 09:28:46;;;;;;;33.15;4.60;;;;;;;-143.48;86.32;118439.88;5095124;28;20024;-34
2023/02/06 09:31:11;;;;;;;31.05;4.80;;;;;;;-143.48;85.91;118439.88;5094580;28;20481;-35
2023/02/06 09:33:38;;;;;;;19.30;4.80;;;;;;;-143.48;85.75;118439.88;5076228;28;20020;-35
2023/02/06 09:36:15;;;;;;;20.83;4.22;;;;;;;-143.48;85.14;118439.88;5094611;28;20051;-35
2023/02/06 09:38:45;;;;;;;25.20;4.38;;;;;;;-143.48;85.11;118439.88;5094664;28;20474;-35
2023/02/06 09:41:28;;;;;;;31.73;4.90;;;;;;;-143.48;83.38;118439.88;5094297;28;20063;-35
2023/02/06 09:44:11;;;;;;;22.88;5.00;;;;;;;-143.48;83.80;118439.88;5077944;28;20077;-35
2023/02/06 09:46:43;;;;;;;31.80;5.50;;;;;;;-143.48;82.09;118439.88;5094444;28;20036;-35
2023/02/06 09:49:17;;;;;;;25.20;5.75;;;;;;;-143.48;79.62;118439.88;5094223;28;20130;-35
2023/02/06 09:52:05;;;;;;;24.85;4.90;;;;;;;-143.48;79.70;118439.88;5094246;28;20047;-35
2023/02/06 09:54:39;;;;;;;22.95;4.75;;;;;;;-143.48;79.08;118439.88;5094538;28;20046;-35
2023/02/06 09:57:15;;;;;;;19.30;4.32;;;;;;;-143.48;77.22;118439.88;5094295;28;20402;-35
2023/02/06 09:59:46;;;;;;;31.33;5.38;;;;;;;-143.48;72.17;118439.88;5094022;28;20062;-35
2023/02/06 10:02:40;;;;;;;26.27;5.30;;;;;;;-143.48;73.76;118439.88;5094530;28;20119;-35
2023/02/06 10:05:25;;;;;;;24.00;4.88;;;;;;;-143.48;72.63;118439.88;5094329;28;20031;-35
2023/02/06 10:07:59;;;;;;;31.75;5.22;;;;;;;-143.48;71.03;118439.88;5093969;28;20035;-36
2023/02/06 10:10:44;;;;;;;31.77;5.18;;;;;;;-143.48;75.86;118439.88;5094181;28;20477;-35
2023/02/06 10:13:30;;;;;;;29.52;4.63;;;;;;;-143.48;73.12;118439.88;5093829;28;20398;-35
2023/02/06 10:16:09;;;;;;;25.98;4.57;;;;;;;-143.48;76.19;118439.88;5093975;28;20031;-35
2023/02/06 10:18:51;;;;;;;26.45;4.28;;;;;;;-143.48;72.56;118439.88;5094212;28;20035;-35
2023/02/06 10:21:57;;;;;;;28.15;4.63;;;;;;;-143.48;70.94;118439.88;5093790;28;20031;-35
2023/02/06 10:24:35;;;;;;;25.20;3.92;;;;;;;-143.48;66.00;118439.88;5059892;28;20093;-35
2023/02/06 10:27:05;;;;;;;22.23;4.10;;;;;;;-143.48;58.42;118439.88;5093832;28;20028;-37
2023/02/06 10:29:32;;;;;;;25.58;4.65;;;;;;;-143.48;49.88;118439.88;5094012;28;20024;-34
2023/02/06 10:32:25;;;;;;;21.80;4.20;;;;;;;-143.48;46.35;118439.88;5093647;28;20028;-36
2023/02/06 10:34:59;;;;;;;;;;;;;;;-143.48;44.73;118439.88;5094266;28;20023;-34
2023/02/06 10:37:52;;;;;;;21.92;4.50;;;;;;;-143.48;45.76;118439.88;5094160;28;20350;-34
2023/02/06 10:40:52;;;;;;;25.65;4.85;;;;;;;-143.48;43.94;118439.88;5093699;28;20027;-37
2023/02/06 10:43:39;;;;;;;25.05;4.82;;;;;;;-143.48;51.15;118439.88;5089320;28;20032;-34
2023/02/06 10:46:27;;;;;;;18.77;4.05;;;;;;;-143.48;48.71;118439.88;5093693;28;20020;-36
2023/02/06 10:49:10;;;;;;;19.63;3.92;;;;;;;-143.48;49.20;118439.88;5096123;28;20075;-34
2023/02/06 10:51:41;;;;;;;21.83;4.22;;;;;;;-143.48;53.69;118439.88;5082043;28;20024;-35
2023/02/06 10:54:24;;;;;;;21.70;4.07;;;;;;;-143.48;60.54;118439.88;5083018;28;20103;-35
2023/02/06 10:56:51;;;;;;;20.10;3.70;;;;;;;-143.48;60.19;118439.88;5100175;28;20398;-34
2023/02/06 10:59:22;;;;;;;23.27;4.03;;;;;;;-143.48;45.50;118439.88;5081808;28;20024;-35
2023/02/06 11:01:52;;;;;;;28.38;4.28;;;;;;;-143.48;54.20;118439.88;5100403;28;20496;-34
2023/02/06 11:04:30;;;;;;;26.27;4.05;;;;;;;-143.48;45.50;118439.88;5100071;28;20024;-34
2023/02/06 11:07:00;;;;;;;18.83;3.63;;;;;;;-143.48;40.37;118439.88;5100545;28;20408;-35
2023/02/06 11:09:26;;;;;;;19.08;4.47;;;;;;;-143.48;41.69;118439.88;5100075;28;20059;-35